createdAt,value
2023-08-01T00:00:23.612Z,3.20
2023-08-01T00:03:14.953Z,3.10
2023-08-01T00:05:46.814Z,2.70
2023-08-01T00:08:16.234Z,3.30
2023-08-01T00:10:45.705Z,3.00
2023-08-01T00:13:15.250Z,2.90
2023-08-01T00:15:53.943Z,2.90
2023-08-01T00:18:35.984Z,3.00
2023-08-01T00:21:06.939Z,3.20
2023-08-01T00:23:37.517Z,3.20
2023-08-01T00:26:06.808Z,3.30
2023-08-01T00:28:37.181Z,3.50
2023-08-01T00:31:10.430Z,3.10
2023-08-01T00:33:40.035Z,3.10
2023-08-01T00:36:10.995Z,3.20
2023-08-01T00:38:40.580Z,3.10
2023-08-01T00:41:09.220Z,3.40
2023-08-01T00:43:39.833Z,2.80
2023-08-01T00:46:11.683Z,3.20
2023-08-01T00:48:42.266Z,3.50
2023-08-01T00:51:14.492Z,3.00
2023-08-01T00:53:43.995Z,2.70
2023-08-01T00:56:13.031Z,3.30
2023-08-01T00:58:42.603Z,2.90
2023-08-01T01:01:11.982Z,3.30
2023-08-01T01:03:42.281Z,2.80
2023-08-01T01:06:17.533Z,3.60
2023-08-01T01:08:47.537Z,3.10
2023-08-01T01:11:17.170Z,3.30
2023-08-01T01:13:45.947Z,3.40
2023-08-01T01:16:15.562Z,3.10
2023-08-01T01:18:45.560Z,3.30
2023-08-01T01:21:15.023Z,3.10
2023-08-01T01:24:04.633Z,3.20
2023-08-01T01:26:36.041Z,3.10
2023-08-01T01:29:07.536Z,3.50
2023-08-01T01:31:38.965Z,2.90
2023-08-01T01:34:10.136Z,3.60
2023-08-01T01:36:39.443Z,3.50
2023-08-01T01:39:09.199Z,3.10
2023-08-01T01:41:39.892Z,3.20
2023-08-01T01:44:09.615Z,3.10
2023-08-01T01:46:40.761Z,3.60
2023-08-01T01:49:11.002Z,3.00
2023-08-01T01:51:41.155Z,3.50
2023-08-01T01:54:10.703Z,3.30
2023-08-01T01:56:41.452Z,3.00
2023-08-01T01:59:11.827Z,3.40
2023-08-01T02:01:42.057Z,3.40
2023-08-01T02:04:10.738Z,3.50
2023-08-01T02:06:41.658Z,2.90
2023-08-01T02:09:11.757Z,3.60
2023-08-01T02:11:41.504Z,3.00
2023-08-01T02:14:11.773Z,3.30
2023-08-01T02:16:41.970Z,3.50
2023-08-01T02:19:12.703Z,3.10
2023-08-01T02:21:42.606Z,3.50
2023-08-01T02:24:14.431Z,3.00
2023-08-01T02:26:47.558Z,3.00
2023-08-01T02:29:18.839Z,3.10
2023-08-01T02:31:48.730Z,3.30
2023-08-01T02:34:19.108Z,2.70
2023-08-01T02:36:48.783Z,3.60
2023-08-01T02:39:18.399Z,3.20
2023-08-01T02:41:48.154Z,2.90
2023-08-01T02:44:17.748Z,3.00
2023-08-01T02:46:47.436Z,3.00
2023-08-01T02:49:17.437Z,3.00
2023-08-01T02:51:47.826Z,3.50
2023-08-01T02:54:18.281Z,3.20
2023-08-01T02:56:47.903Z,2.70
2023-08-01T02:59:17.703Z,3.10
2023-08-01T03:01:47.426Z,3.30
2023-08-01T03:04:17.361Z,3.10
2023-08-01T03:06:50.706Z,3.50
2023-08-01T03:09:21.229Z,3.00
2023-08-01T03:11:50.993Z,3.00
2023-08-01T03:14:20.607Z,3.00
2023-08-01T03:16:51.400Z,3.30
2023-08-01T03:19:22.065Z,2.90
2023-08-01T03:21:50.784Z,3.70
2023-08-01T03:24:23.666Z,3.20
2023-08-01T03:26:52.540Z,2.80
2023-08-01T03:29:22.014Z,2.70
2023-08-01T03:31:54.418Z,3.40
2023-08-01T03:34:24.101Z,3.70
2023-08-01T03:36:53.749Z,2.80
2023-08-01T03:39:23.461Z,3.70
2023-08-01T03:41:52.943Z,4.00
2023-08-01T03:44:25.057Z,4.40
2023-08-01T03:46:55.462Z,4.80
2023-08-01T03:49:25.879Z,4.40
2023-08-01T03:52:00.744Z,4.10
2023-08-01T03:54:31.444Z,3.70
2023-08-01T03:57:01.274Z,3.00
2023-08-01T03:59:31.083Z,3.20
2023-08-01T04:02:00.500Z,3.70
2023-08-01T04:04:29.888Z,3.60
2023-08-01T04:06:59.358Z,3.30
2023-08-01T04:09:28.788Z,3.30
2023-08-01T04:11:58.605Z,3.20
2023-08-01T04:14:28.073Z,3.00
2023-08-01T04:16:57.503Z,3.10
2023-08-01T04:19:26.977Z,3.10
2023-08-01T04:21:56.443Z,3.60
2023-08-01T04:24:26.988Z,3.30
2023-08-01T04:26:56.953Z,3.20
2023-08-01T04:29:27.372Z,3.80
2023-08-01T04:31:57.055Z,3.70
2023-08-01T04:34:27.715Z,3.40
2023-08-01T04:36:59.076Z,3.30
2023-08-01T04:39:27.815Z,4.00
2023-08-01T04:41:59.502Z,3.30
2023-08-01T04:44:30.874Z,3.20
2023-08-01T04:47:00.436Z,3.80
2023-08-01T04:49:29.213Z,3.90
2023-08-01T04:51:58.641Z,3.70
2023-08-01T04:54:28.219Z,3.70
2023-08-01T04:56:57.647Z,3.90
2023-08-01T04:59:27.254Z,3.70
2023-08-01T05:01:57.513Z,3.80
2023-08-01T05:04:27.172Z,3.80
2023-08-01T05:06:57.375Z,3.50
2023-08-01T05:09:26.790Z,3.60
2023-08-01T05:11:56.124Z,3.70
2023-08-01T05:14:25.585Z,3.50
2023-08-01T05:16:55.605Z,3.70
2023-08-01T05:19:25.711Z,3.40
2023-08-01T05:21:56.795Z,3.70
2023-08-01T05:24:26.185Z,4.20
2023-08-01T05:26:57.739Z,4.70
2023-08-01T05:29:27.541Z,4.20
2023-08-01T05:31:57.505Z,4.00
2023-08-01T05:34:28.795Z,4.60
2023-08-01T05:36:58.314Z,4.70
2023-08-01T05:39:27.816Z,4.60
2023-08-01T05:41:56.529Z,4.60
2023-08-01T05:44:26.063Z,5.00
2023-08-01T05:46:55.533Z,4.50
2023-08-01T05:49:25.027Z,5.00
2023-08-01T05:51:55.196Z,5.40
2023-08-01T05:54:24.725Z,4.90
2023-08-01T05:56:55.746Z,4.70
2023-08-01T05:59:25.465Z,4.10
2023-08-01T06:01:55.105Z,3.80
2023-08-01T06:04:24.677Z,4.20
2023-08-01T06:06:54.200Z,3.70
2023-08-01T06:09:24.658Z,3.30
2023-08-01T06:11:54.420Z,3.00
2023-08-01T06:14:24.642Z,3.30
2023-08-01T06:16:53.354Z,2.90
2023-08-01T06:19:22.915Z,3.50
2023-08-01T06:21:52.516Z,3.10
2023-08-01T06:24:21.954Z,3.10
2023-08-01T06:26:52.255Z,3.30
2023-08-01T06:29:21.566Z,3.10
2023-08-01T06:31:52.127Z,2.90
2023-08-01T06:34:21.124Z,2.90
2023-08-01T06:36:51.537Z,2.90
2023-08-01T06:39:21.078Z,2.50
2023-08-01T06:41:50.520Z,2.80
2023-08-01T06:44:20.047Z,2.80
2023-08-01T06:46:49.503Z,2.80
2023-08-01T06:49:18.346Z,2.30
2023-08-01T06:51:47.816Z,2.30
2023-08-01T06:54:17.449Z,2.90
2023-08-01T06:56:49.109Z,2.40
2023-08-01T06:59:19.697Z,3.50
2023-08-01T07:01:49.776Z,2.70
2023-08-01T07:04:19.219Z,2.50
2023-08-01T07:06:48.752Z,2.60
2023-08-01T07:09:18.181Z,2.60
2023-08-01T07:11:47.618Z,3.10
2023-08-01T07:14:17.899Z,3.10
2023-08-01T07:16:47.231Z,2.40
2023-08-01T07:19:16.701Z,2.60
2023-08-01T07:21:48.041Z,2.60
2023-08-01T07:24:17.477Z,2.70
2023-08-01T07:26:46.236Z,2.70
2023-08-01T07:29:17.415Z,2.50
2023-08-01T07:31:47.917Z,2.80
2023-08-01T07:34:17.639Z,2.80
2023-08-01T07:36:53.705Z,2.90
2023-08-01T07:39:23.454Z,2.70
2023-08-01T07:41:52.862Z,2.80
2023-08-01T07:44:22.808Z,2.50
2023-08-01T07:46:52.236Z,3.00
2023-08-01T07:49:22.528Z,2.80
2023-08-01T07:51:52.863Z,2.70
2023-08-01T07:54:22.884Z,2.70
2023-08-01T07:56:52.297Z,2.90
2023-08-01T07:59:21.830Z,3.40
2023-08-01T08:01:51.275Z,3.10
2023-08-01T08:04:20.039Z,3.10
2023-08-01T08:06:51.092Z,2.80
2023-08-01T08:09:20.518Z,2.50
2023-08-01T08:11:52.009Z,2.80
2023-08-01T08:14:23.133Z,2.90
2023-08-01T08:16:53.400Z,2.70
2023-08-01T08:19:25.667Z,3.10
2023-08-01T08:21:56.010Z,3.30
2023-08-01T08:24:26.229Z,3.00
2023-08-01T08:26:56.789Z,3.80
2023-08-01T08:29:26.696Z,3.00
2023-08-01T08:31:57.012Z,3.70
2023-08-01T08:34:26.518Z,3.30
2023-08-01T08:36:57.908Z,3.40
2023-08-01T08:39:27.306Z,2.80
2023-08-01T08:41:59.293Z,3.30
2023-08-01T08:44:34.871Z,3.00
2023-08-01T08:47:08.026Z,2.90
2023-08-01T08:49:38.633Z,3.40
2023-08-01T08:52:09.452Z,3.10
2023-08-01T08:54:39.879Z,2.90
2023-08-01T08:57:11.749Z,3.30
2023-08-01T08:59:41.323Z,2.30
2023-08-01T09:02:11.177Z,2.50
2023-08-01T09:04:40.731Z,2.80
2023-08-01T09:07:12.157Z,3.00
2023-08-01T09:09:41.632Z,2.70
2023-08-01T09:12:11.606Z,2.60
2023-08-01T09:14:41.548Z,3.20
2023-08-01T09:17:11.742Z,2.60
2023-08-01T09:19:40.936Z,3.70
2023-08-01T09:22:15.773Z,2.90
2023-08-01T09:24:54.977Z,2.90
2023-08-01T09:27:35.165Z,3.00
2023-08-01T09:30:15.322Z,2.70
2023-08-01T09:32:55.338Z,2.50
2023-08-01T09:35:25.146Z,3.00
2023-08-01T09:37:54.783Z,2.50
2023-08-01T09:40:24.307Z,3.50
2023-08-01T09:42:54.025Z,3.20
2023-08-01T09:45:23.936Z,2.90
2023-08-01T09:47:52.604Z,3.00
2023-08-01T09:50:27.166Z,2.60
2023-08-01T09:52:58.285Z,2.60
2023-08-01T09:55:33.553Z,2.60
2023-08-01T09:58:04.720Z,2.80
2023-08-01T10:00:35.072Z,2.80
2023-08-01T10:03:05.371Z,2.70
2023-08-01T10:05:37.468Z,2.30
2023-08-01T10:08:06.511Z,2.70
2023-08-01T10:10:36.587Z,2.50
2023-08-01T10:13:06.815Z,2.70
2023-08-01T10:15:36.374Z,2.20
2023-08-01T10:18:06.097Z,2.30
2023-08-01T10:20:36.933Z,2.40
2023-08-01T10:23:10.296Z,2.30
2023-08-01T10:25:43.330Z,2.70
2023-08-01T10:28:14.059Z,2.30
2023-08-01T10:30:43.765Z,2.40
2023-08-01T10:33:14.558Z,2.50
2023-08-01T10:35:44.200Z,2.60
2023-08-01T10:38:13.993Z,2.60
2023-08-01T10:40:44.997Z,2.30
2023-08-01T10:43:25.346Z,2.70
2023-08-01T10:46:05.121Z,4.50
2023-08-01T10:48:34.124Z,2.40
2023-08-01T10:51:05.653Z,2.40
2023-08-01T10:53:43.220Z,4.20
2023-08-01T10:56:22.538Z,4.60
2023-08-01T10:58:52.020Z,4.00
2023-08-01T11:01:22.208Z,3.30
2023-08-01T11:03:52.068Z,2.60
2023-08-01T11:06:22.217Z,2.30
2023-08-01T11:08:52.476Z,2.60
2023-08-01T11:11:21.986Z,2.40
2023-08-01T11:13:54.938Z,2.20
2023-08-01T11:16:24.621Z,2.20
2023-08-01T11:18:54.764Z,2.50
2023-08-01T11:21:31.139Z,2.50
2023-08-01T11:24:07.556Z,2.50
2023-08-01T11:29:14.183Z,2.20
2023-08-01T11:31:54.275Z,2.90
2023-08-01T11:34:24.131Z,2.80
2023-08-01T11:36:54.785Z,2.90
2023-08-01T11:39:24.914Z,2.60
2023-08-01T11:41:55.266Z,2.10
2023-08-01T11:44:27.676Z,2.70
2023-08-01T11:46:58.057Z,2.70
2023-08-01T11:49:28.358Z,2.50
2023-08-01T11:51:58.781Z,2.40
2023-08-01T11:54:29.043Z,2.30
2023-08-01T11:57:04.753Z,2.50
2023-08-01T11:59:34.860Z,2.20
2023-08-01T12:02:04.623Z,2.40
2023-08-01T12:04:34.933Z,2.40
2023-08-01T12:07:14.747Z,2.20
2023-08-01T12:10:02.432Z,2.40
2023-08-01T12:12:33.524Z,2.30
2023-08-01T12:15:04.046Z,2.50
2023-08-01T12:17:35.991Z,2.40
2023-08-01T12:20:05.417Z,2.40
2023-08-01T12:22:35.522Z,2.60
2023-08-01T12:25:05.771Z,2.30
2023-08-01T12:27:35.565Z,2.20
2023-08-01T12:30:08.064Z,1.90
2023-08-01T12:32:39.185Z,2.20
2023-08-01T12:35:09.766Z,2.20
2023-08-01T12:37:39.383Z,2.50
2023-08-01T12:40:09.623Z,2.10
2023-08-01T12:42:39.411Z,2.20
2023-08-01T12:45:09.910Z,2.20
2023-08-01T12:47:41.658Z,2.60
2023-08-01T12:50:11.971Z,2.20
2023-08-01T12:52:41.560Z,2.40
2023-08-01T12:55:10.997Z,2.10
2023-08-01T12:57:39.631Z,2.00
2023-08-01T13:00:11.817Z,2.40
2023-08-01T13:02:41.433Z,2.20
2023-08-01T13:05:11.697Z,2.20
2023-08-01T13:07:40.952Z,2.10
2023-08-01T13:10:11.590Z,2.10
2023-08-01T13:12:41.566Z,2.00
2023-08-01T13:15:17.240Z,2.00
2023-08-01T13:17:47.297Z,1.80
2023-08-01T13:20:16.851Z,2.20
2023-08-01T13:22:48.778Z,2.50
2023-08-01T13:25:19.901Z,2.00
2023-08-01T13:27:49.493Z,2.70
2023-08-01T13:30:20.038Z,2.70
2023-08-01T13:32:49.777Z,2.60
2023-08-01T13:35:19.409Z,2.60
2023-08-01T13:37:48.762Z,2.50
2023-08-01T13:40:18.388Z,2.20
2023-08-01T13:42:47.943Z,2.00
2023-08-01T13:45:16.966Z,2.20
2023-08-01T13:47:47.398Z,2.10
2023-08-01T13:50:17.082Z,2.50
2023-08-01T13:52:47.573Z,2.20
2023-08-01T13:55:19.016Z,2.30
2023-08-01T13:57:48.684Z,2.20
2023-08-01T14:00:18.227Z,2.60
2023-08-01T14:02:50.882Z,2.20
2023-08-01T14:05:21.025Z,2.00
2023-08-01T14:07:51.334Z,3.20
2023-08-01T14:10:21.584Z,2.30
2023-08-01T14:12:51.673Z,2.40
2023-08-01T14:15:21.968Z,2.30
2023-08-01T14:17:51.593Z,2.30
2023-08-01T14:20:22.264Z,1.90
2023-08-01T14:22:52.286Z,2.20
2023-08-01T14:25:21.677Z,2.50
2023-08-01T14:27:51.146Z,2.20
2023-08-01T14:30:20.728Z,2.40
2023-08-01T14:32:50.811Z,2.40
2023-08-01T14:35:20.407Z,2.10
2023-08-01T14:37:50.333Z,3.10
2023-08-01T14:40:20.477Z,2.30
2023-08-01T14:42:50.201Z,2.50
2023-08-01T14:45:19.582Z,2.60
2023-08-01T14:47:49.166Z,2.40
2023-08-01T14:50:18.759Z,2.10
2023-08-01T14:52:48.409Z,2.60
2023-08-01T14:55:17.951Z,2.30
2023-08-01T14:57:47.619Z,2.50
2023-08-01T15:00:18.077Z,2.30
2023-08-01T15:02:52.693Z,2.20
2023-08-01T15:05:23.046Z,2.50
2023-08-01T15:07:52.688Z,2.10
2023-08-01T15:10:22.236Z,2.60
2023-08-01T15:12:53.812Z,2.40
2023-08-01T15:15:23.395Z,2.50
2023-08-01T15:17:53.546Z,2.60
2023-08-01T15:20:24.503Z,2.20
2023-08-01T15:22:54.643Z,2.40
2023-08-01T15:25:26.033Z,2.20
2023-08-01T15:27:56.548Z,2.30
2023-08-01T15:30:28.164Z,2.50
2023-08-01T15:32:58.158Z,2.20
2023-08-01T15:35:34.533Z,2.60
2023-08-01T15:38:04.611Z,2.50
2023-08-01T15:40:35.647Z,2.00
2023-08-01T15:43:05.892Z,2.10
2023-08-01T15:45:36.506Z,2.60
2023-08-01T15:48:06.713Z,2.20
2023-08-01T15:50:37.177Z,2.50
2023-08-01T15:53:07.861Z,2.40
2023-08-01T15:55:38.622Z,2.60
2023-08-01T15:58:10.345Z,2.30
2023-08-01T16:00:40.806Z,2.50
2023-08-01T16:03:09.570Z,2.60
2023-08-01T16:05:40.958Z,2.90
2023-08-01T16:08:14.463Z,2.90
2023-08-01T16:10:46.227Z,2.70
2023-08-01T16:13:14.954Z,2.80
2023-08-01T16:15:45.408Z,2.60
2023-08-01T16:18:15.104Z,2.70
2023-08-01T16:20:45.340Z,2.50
2023-08-01T16:23:14.915Z,2.20
2023-08-01T16:25:44.556Z,2.20
2023-08-01T16:28:14.768Z,2.30
2023-08-01T16:30:45.308Z,2.60
2023-08-01T16:33:15.844Z,2.80
2023-08-01T16:35:45.957Z,2.80
2023-08-01T16:38:15.702Z,2.80
2023-08-01T16:40:45.244Z,2.80
2023-08-01T16:43:14.877Z,2.50
2023-08-01T16:45:44.871Z,2.60
2023-08-01T16:48:14.678Z,2.50
2023-08-01T16:50:44.161Z,2.80
2023-08-01T16:53:13.845Z,2.70
2023-08-01T16:55:43.348Z,2.70
2023-08-01T16:58:15.402Z,2.70
2023-08-01T17:00:44.973Z,3.20
2023-08-01T17:03:15.017Z,2.70
2023-08-01T17:05:45.084Z,2.70
2023-08-01T17:08:15.137Z,2.80
2023-08-01T17:10:45.467Z,2.60
2023-08-01T17:13:15.477Z,2.40
2023-08-01T17:15:44.279Z,2.80
2023-08-01T17:18:19.600Z,2.70
2023-08-01T17:20:50.029Z,3.30
2023-08-01T17:23:19.468Z,3.10
2023-08-01T17:25:48.234Z,3.30
2023-08-01T17:28:17.927Z,3.00
2023-08-01T17:30:47.437Z,3.00
2023-08-01T17:33:17.553Z,3.00
2023-08-01T17:35:47.495Z,2.80
2023-08-01T17:38:17.167Z,2.70
2023-08-01T17:40:46.623Z,2.70
2023-08-01T17:43:16.901Z,2.90
2023-08-01T17:45:46.997Z,3.20
2023-08-01T17:48:17.148Z,3.10
2023-08-01T17:50:47.045Z,3.10
2023-08-01T17:53:16.658Z,3.20
2023-08-01T17:55:47.221Z,3.80
2023-08-01T17:58:24.314Z,3.20
2023-08-01T18:00:54.162Z,3.10
2023-08-01T18:03:24.355Z,3.30
2023-08-01T18:06:15.260Z,3.30
2023-08-01T18:08:45.734Z,3.80
2023-08-01T18:11:17.598Z,3.70
2023-08-01T18:13:49.573Z,3.40
2023-08-01T18:16:24.052Z,3.30
2023-08-01T18:18:54.937Z,3.50
2023-08-01T18:21:24.556Z,3.60
2023-08-01T18:23:54.241Z,3.70
2023-08-01T18:26:25.437Z,3.40
2023-08-01T18:28:55.264Z,3.90
2023-08-01T18:31:25.647Z,3.80
2023-08-01T18:33:55.533Z,3.50
2023-08-01T18:36:29.616Z,3.30
2023-08-01T18:39:01.418Z,3.20
2023-08-01T18:41:31.751Z,3.80
2023-08-01T18:44:01.745Z,3.40
2023-08-01T18:46:32.254Z,3.30
2023-08-01T18:49:01.754Z,3.40
2023-08-01T18:51:34.041Z,3.20
2023-08-01T18:54:05.206Z,3.70
2023-08-01T18:56:34.853Z,3.10
2023-08-01T18:59:05.206Z,3.90
2023-08-01T19:01:34.698Z,3.40
2023-08-01T19:04:05.242Z,3.40
2023-08-01T19:06:34.463Z,4.50
2023-08-01T19:09:20.068Z,4.50
2023-08-01T19:14:21.531Z,3.50
2023-08-01T19:16:51.568Z,3.40
2023-08-01T19:19:21.430Z,3.30
2023-08-01T19:21:50.833Z,3.60
2023-08-01T19:24:23.686Z,3.50
2023-08-01T19:26:53.678Z,3.70
2023-08-01T19:29:23.433Z,3.30
2023-08-01T19:31:54.146Z,3.10
2023-08-01T19:34:23.690Z,3.10
2023-08-01T19:36:52.464Z,3.80
2023-08-01T19:39:23.482Z,3.70
2023-08-01T19:41:52.955Z,4.60
2023-08-01T19:44:24.504Z,4.60
2023-08-01T19:46:53.933Z,4.90
2023-08-01T19:49:24.104Z,7.00
2023-08-01T19:51:53.679Z,6.70
2023-08-01T19:54:23.472Z,5.60
2023-08-01T19:56:53.114Z,5.80
2023-08-01T19:59:23.782Z,6.00
2023-08-01T20:01:55.388Z,4.70
2023-08-01T20:04:25.166Z,4.20
2023-08-01T20:06:54.752Z,5.00
2023-08-01T20:09:24.249Z,3.70
2023-08-01T20:11:53.849Z,4.40
2023-08-01T20:14:23.218Z,4.30
2023-08-01T20:16:54.428Z,4.10
2023-08-01T20:19:24.014Z,4.30
2023-08-01T20:21:54.901Z,4.20
2023-08-01T20:24:24.516Z,3.90
2023-08-01T20:26:54.156Z,4.00
2023-08-01T20:29:23.696Z,3.50
2023-08-01T20:31:53.625Z,4.10
2023-08-01T20:34:23.147Z,4.30
2023-08-01T20:36:53.123Z,4.20
2023-08-01T20:39:25.274Z,4.50
2023-08-01T20:41:55.677Z,4.40
2023-08-01T20:44:25.732Z,4.70
2023-08-01T20:46:55.131Z,3.90
2023-08-01T20:49:24.230Z,4.50
2023-08-01T20:51:53.751Z,4.50
2023-08-01T20:54:23.653Z,4.40
2023-08-01T20:56:53.138Z,4.50
2023-08-01T20:59:22.833Z,4.60
2023-08-01T21:01:52.789Z,4.80
2023-08-01T21:04:22.346Z,4.00
2023-08-01T21:06:51.876Z,3.90
2023-08-01T21:09:21.506Z,4.00
2023-08-01T21:11:50.976Z,4.00
2023-08-01T21:14:20.615Z,4.20
2023-08-01T21:16:52.368Z,3.70
2023-08-01T21:19:22.059Z,3.80
2023-08-01T21:21:52.057Z,3.80
2023-08-01T21:24:22.049Z,3.70
2023-08-01T21:26:51.574Z,3.50
2023-08-01T21:29:22.892Z,3.40
2023-08-01T21:31:54.187Z,3.70
2023-08-01T21:34:23.659Z,3.70
2023-08-01T21:36:53.889Z,4.00
2023-08-01T21:39:23.875Z,4.00
2023-08-01T21:41:52.570Z,4.10
2023-08-01T21:44:23.608Z,4.20
2023-08-01T21:46:53.203Z,4.10
2023-08-01T21:49:22.714Z,3.80
2023-08-01T21:51:52.344Z,4.30
2023-08-01T21:54:21.751Z,4.30
2023-08-01T21:56:51.358Z,4.00
2023-08-01T21:59:21.215Z,4.40
2023-08-01T22:01:51.688Z,4.20
2023-08-01T22:04:21.154Z,4.00
2023-08-01T22:06:50.742Z,4.40
2023-08-01T22:09:19.424Z,4.50
2023-08-01T22:11:49.222Z,4.30
2023-08-01T22:14:18.800Z,4.10
2023-08-01T22:16:49.058Z,4.10
2023-08-01T22:19:18.894Z,4.00
2023-08-01T22:21:49.264Z,4.70
2023-08-01T22:24:18.855Z,4.60
2023-08-01T22:26:48.348Z,4.10
2023-08-01T22:29:18.641Z,4.30
2023-08-01T22:31:48.731Z,4.20
2023-08-01T22:34:17.710Z,4.40
2023-08-01T22:36:48.018Z,4.50
2023-08-01T22:39:19.213Z,4.20
2023-08-01T22:41:49.572Z,4.30
2023-08-01T22:44:19.849Z,4.20
2023-08-01T22:46:49.829Z,4.40
2023-08-01T22:49:18.576Z,3.90
2023-08-01T22:51:49.053Z,4.10
2023-08-01T22:54:19.931Z,4.50
2023-08-01T22:56:50.090Z,4.10
2023-08-01T22:59:21.093Z,3.60
2023-08-01T23:01:51.521Z,4.40
2023-08-01T23:04:21.614Z,3.90
2023-08-01T23:06:51.656Z,4.30
2023-08-01T23:09:22.914Z,4.00
2023-08-01T23:11:53.502Z,4.00
2023-08-01T23:14:24.083Z,4.10
2023-08-01T23:16:57.039Z,4.30
2023-08-01T23:19:26.899Z,4.30
2023-08-01T23:21:57.670Z,4.40
2023-08-01T23:24:27.220Z,4.80
2023-08-01T23:26:56.893Z,4.00
2023-08-01T23:29:27.321Z,5.00
2023-08-01T23:31:58.047Z,4.10
2023-08-01T23:34:27.762Z,4.00
2023-08-01T23:36:57.602Z,4.20
2023-08-01T23:39:28.940Z,4.00
2023-08-01T23:41:58.948Z,4.20
2023-08-01T23:44:30.497Z,4.40
2023-08-01T23:47:00.815Z,4.40
2023-08-01T23:49:36.494Z,4.30
2023-08-01T23:52:07.930Z,3.90
2023-08-01T23:54:37.774Z,4.30
2023-08-01T23:57:07.905Z,4.40
2023-08-01T23:59:38.465Z,4.60
